Time;durP1;ratioP1;P1;durP2;ratioP2;P2;SDS_P1;SDS_P2;PMS_P1;PMS_P2;Temp;Humidity;BMP_temperature;BMP_pressure;BME280_temperature;BME280_humidity;BME280_pressure;Samples;Min_cycle;Max_cycle;Signal;HPM_P1;HPM_P2
2021/12/05 00:18:48;;;;;;;0.00;0.00;;;4.10;99.90;;;;;;4962855;28;20401;-70
2021/12/05 00:23:47;;;;;;;0.00;0.00;;;4.10;99.90;;;;;;4962252;28;20086;-70
2021/12/05 00:26:19;;;;;;;0.00;0.00;;;4.10;99.90;;;;;;4978271;28;20118;-70
2021/12/05 00:29:09;;;;;;;0.00;0.00;;;4.10;99.90;;;;;;4979352;28;20054;-70
2021/12/05 00:34:30;;;;;;;0.00;0.00;;;4.10;99.90;;;;;;4979305;28;20049;-70
2021/12/05 00:42:35;;;;;;;0.00;0.00;;;4.10;99.90;;;;;;4978929;28;20058;-70
2021/12/05 00:55:53;;;;;;;0.00;0.00;;;4.10;99.90;;;;;;4978933;28;20132;-69
2021/12/05 01:11:57;;;;;;;0.00;0.00;;;4.00;99.90;;;;;;4977286;28;20138;-70
2021/12/05 01:16:50;;;;;;;0.00;0.00;;;4.00;99.90;;;;;;4958538;28;20130;-70
2021/12/05 01:19:20;;;;;;;0.00;0.00;;;4.80;99.90;;;;;;4960291;28;20043;-70
2021/12/05 01:21:48;;;;;;;0.00;0.00;;;3.90;99.90;;;;;;4962173;28;20109;-70
2021/12/05 01:29:50;;;;;;;0.00;0.00;;;2.80;99.90;;;;;;4962183;28;20058;-70
2021/12/05 01:35:11;;;;;;;0.00;0.00;;;3.70;99.90;;;;;;4963040;28;20150;-70
2021/12/05 01:37:58;;;;;;;0.00;0.00;;;4.10;99.90;;;;;;4961964;28;20078;-69
2021/12/05 01:55:15;;;;;;;0.00;0.00;;;3.70;99.90;;;;;;4962908;28;20047;-70
2021/12/05 02:09:20;;;;;;;0.00;0.00;;;3.60;99.90;;;;;;4961426;28;20082;-69
2021/12/05 02:12:07;;;;;;;0.00;0.00;;;3.60;99.90;;;;;;4961763;28;20049;-70
2021/12/05 02:31:46;;;;;;;0.00;0.00;;;3.60;99.90;;;;;;4962347;28;20082;-70
2021/12/05 02:36:53;;;;;;;0.00;0.00;;;3.50;99.90;;;;;;4962631;28;20051;-70
2021/12/05 02:42:07;;;;;;;0.00;0.00;;;3.50;99.90;;;;;;4961295;28;20066;-70
2021/12/05 02:44:34;;;;;;;0.00;0.00;;;3.50;99.90;;;;;;4962608;28;20043;-70
2021/12/05 02:47:07;;;;;;;0.00;0.00;;;3.50;99.90;;;;;;4961222;28;20406;-70
2021/12/05 02:49:36;;;;;;;0.00;0.00;;;3.50;99.90;;;;;;4961189;28;20043;-70
2021/12/05 02:52:06;;;;;;;0.00;0.00;;;3.50;99.90;;;;;;4962086;28;20089;-69
2021/12/05 02:54:39;;;;;;;0.73;0.73;;;3.50;99.90;;;;;;4962421;28;20460;-66
2021/12/05 02:57:07;;;;;;;0.00;0.00;;;3.50;99.90;;;;;;4960888;28;20054;-70
2021/12/05 03:02:11;;;;;;;0.00;0.00;;;3.50;99.90;;;;;;4961360;28;20126;-71
2021/12/05 03:04:41;;;;;;;0.00;0.00;;;3.40;99.90;;;;;;4961093;28;20054;-70
2021/12/05 03:07:09;;;;;;;0.00;0.00;;;3.50;99.90;;;;;;4961015;28;20039;-70
2021/12/05 03:09:36;;;;;;;0.00;0.00;;;3.40;99.90;;;;;;4961606;28;20047;-69
2021/12/05 03:12:03;;;;;;;0.00;0.00;;;3.50;99.90;;;;;;4961145;28;20050;-69
2021/12/05 03:14:29;;;;;;;0.00;0.00;;;3.50;99.90;;;;;;4981321;28;20046;-70
2021/12/05 03:16:55;;;;;;;0.00;0.00;;;3.50;99.90;;;;;;4979813;28;20104;-70
2021/12/05 03:19:20;;;;;;;0.00;0.00;;;3.40;99.90;;;;;;4980695;28;20520;-70
2021/12/05 03:21:48;;;;;;;0.00;0.00;;;3.50;99.90;;;;;;4963162;28;20639;-70
2021/12/05 03:24:16;;;;;;;0.00;0.00;;;3.50;99.90;;;;;;4980595;28;20424;-70
2021/12/05 03:26:44;;;;;;;0.10;0.10;;;3.50;99.90;;;;;;4979281;28;20048;-70
2021/12/05 03:29:13;;;;;;;0.00;0.00;;;3.50;99.90;;;;;;4962910;28;20058;-69
2021/12/05 03:31:41;;;;;;;0.00;0.00;;;6.90;99.90;;;;;;4980819;28;20061;-72
2021/12/05 03:34:09;;;;;;;0.00;0.00;;;3.90;99.90;;;;;;4962392;28;20128;-70
2021/12/05 03:36:37;;;;;;;0.00;0.00;;;3.50;99.90;;;;;;4980916;28;20035;-70
2021/12/05 03:39:05;;;;;;;0.00;0.00;;;3.50;99.90;;;;;;4980396;28;20242;-67
2021/12/05 03:41:31;;;;;;;0.00;0.00;;;3.50;99.90;;;;;;4979406;28;20066;-71
2021/12/05 03:43:57;;;;;;;0.00;0.00;;;3.50;99.90;;;;;;4979874;28;20042;-72
2021/12/05 03:46:25;;;;;;;0.00;0.00;;;3.50;99.90;;;;;;4962500;28;20058;-71
2021/12/05 03:48:56;;;;;;;0.00;0.00;;;3.70;99.90;;;;;;4979912;28;20100;-70
2021/12/05 03:51:24;;;;;;;0.10;0.10;;;3.50;99.90;;;;;;4979584;28;20446;-71
2021/12/05 03:53:51;;;;;;;0.00;0.00;;;3.60;99.90;;;;;;4962382;28;20125;-70
2021/12/05 03:56:18;;;;;;;0.00;0.00;;;3.60;99.90;;;;;;4979148;28;20100;-70
2021/12/05 03:58:45;;;;;;;0.00;0.00;;;3.60;99.90;;;;;;4978987;28;20043;-70
2021/12/05 04:01:12;;;;;;;0.00;0.00;;;3.60;99.90;;;;;;4962630;28;20058;-70
2021/12/05 04:03:40;;;;;;;0.00;0.00;;;3.60;99.90;;;;;;4961980;28;20074;-71
2021/12/05 04:06:08;;;;;;;0.00;0.00;;;3.60;99.90;;;;;;4979971;28;20073;-71
2021/12/05 04:08:35;;;;;;;0.00;0.00;;;3.60;99.90;;;;;;4980304;28;20084;-70
2021/12/05 04:11:06;;;;;;;0.00;0.00;;;3.60;99.90;;;;;;4979221;28;20046;-71
2021/12/05 04:13:33;;;;;;;0.00;0.00;;;3.60;99.90;;;;;;4980189;28;20061;-70
2021/12/05 04:16:01;;;;;;;0.00;0.00;;;3.60;99.90;;;;;;4979056;28;20058;-71
2021/12/05 04:18:28;;;;;;;0.00;0.00;;;3.60;99.90;;;;;;4979492;28;20066;-70
2021/12/05 04:20:54;;;;;;;0.00;0.00;;;3.80;99.90;;;;;;4961903;28;20065;-70
2021/12/05 04:23:20;;;;;;;0.00;0.00;;;6.20;99.90;;;;;;4961298;28;20042;-71
2021/12/05 04:25:49;;;;;;;2.05;1.08;;;3.50;99.90;;;;;;4978954;28;20468;-70
2021/12/05 04:28:15;;;;;;;0.70;0.70;;;5.00;99.90;;;;;;4979705;28;20826;-71
2021/12/05 04:30:41;;;;;;;0.00;0.00;;;3.60;99.90;;;;;;4979660;28;20050;-70
2021/12/05 04:33:07;;;;;;;0.00;0.00;;;3.90;99.90;;;;;;4978460;28;20640;-70
2021/12/05 04:35:33;;;;;;;0.00;0.00;;;3.50;99.90;;;;;;4979519;28;20665;-67
2021/12/05 04:37:58;;;;;;;0.00;0.00;;;3.50;99.90;;;;;;4979910;28;20038;-70
2021/12/05 04:40:24;;;;;;;0.00;0.00;;;2.70;99.90;;;;;;4978496;28;20524;-70
2021/12/05 04:42:50;;;;;;;0.00;0.00;;;3.50;99.90;;;;;;4978772;28;20078;-69
2021/12/05 04:45:26;;;;;;;0.00;0.00;;;3.50;99.90;;;;;;4978868;28;20118;-69
2021/12/05 04:47:53;;;;;;;0.00;0.00;;;3.50;99.90;;;;;;4962354;28;20057;-68
2021/12/05 04:50:19;;;;;;;0.00;0.00;;;3.50;99.90;;;;;;4961001;28;20050;-70
2021/12/05 04:52:45;;;;;;;0.10;0.10;;;3.50;99.90;;;;;;4978981;28;20050;-70
2021/12/05 04:55:11;;;;;;;0.00;0.00;;;3.50;99.90;;;;;;4982167;28;20045;-69
2021/12/05 04:57:38;;;;;;;0.00;0.00;;;3.50;99.90;;;;;;4983002;28;20086;-70
2021/12/05 05:00:09;;;;;;;0.00;0.00;;;3.50;99.90;;;;;;4983265;28;20066;-70
2021/12/05 05:02:34;;;;;;;0.00;0.00;;;3.50;99.90;;;;;;4965318;28;20038;-68
2021/12/05 05:05:00;;;;;;;0.00;0.00;;;3.50;99.90;;;;;;4983281;28;20054;-69
2021/12/05 05:07:28;;;;;;;0.00;0.00;;;3.50;99.90;;;;;;4982516;28;20042;-69
2021/12/05 05:10:00;;;;;;;0.00;0.00;;;3.50;99.90;;;;;;4982793;28;20049;-69
2021/12/05 05:12:26;;;;;;;0.80;0.35;;;3.50;99.90;;;;;;4965965;28;20417;-69
2021/12/05 05:14:53;;;;;;;0.00;0.00;;;3.50;99.90;;;;;;4980907;28;20061;-68
2021/12/05 05:17:19;;;;;;;0.00;0.00;;;3.50;99.90;;;;;;4982869;28;20201;-69
2021/12/05 05:19:50;;;;;;;0.00;0.00;;;3.40;99.90;;;;;;4982817;28;20048;-69
2021/12/05 05:41:34;;;;;;;0.00;0.00;;;3.40;99.90;;;;;;4982097;28;20286;-68
2021/12/05 05:51:40;;;;;;;0.00;0.00;;;3.40;99.90;;;;;;4982376;28;20282;-69
2021/12/05 05:54:06;;;;;;;0.00;0.00;;;3.30;99.90;;;;;;4965185;28;20564;-69
2021/12/05 05:56:34;;;;;;;0.00;0.00;;;3.30;99.90;;;;;;4981823;28;20046;-69
2021/12/05 05:59:14;;;;;;;1.45;1.00;;;3.30;99.90;;;;;;4981518;28;20049;-69
2021/12/05 06:04:07;;;;;;;0.00;0.00;;;3.30;99.90;;;;;;4981373;28;20088;-68
2021/12/05 06:06:33;;;;;;;0.00;0.00;;;3.30;99.90;;;;;;4981087;28;20069;-67
2021/12/05 06:09:00;;;;;;;0.15;0.15;;;3.30;99.90;;;;;;4982443;28;20046;-68
2021/12/05 06:11:27;;;;;;;0.00;0.00;;;3.30;99.90;;;;;;4981186;28;20108;-68
2021/12/05 06:13:52;;;;;;;0.00;0.00;;;3.30;99.90;;;;;;4980943;28;20062;-68
2021/12/05 06:16:19;;;;;;;0.00;0.00;;;3.20;99.90;;;;;;4982050;28;20516;-68
2021/12/05 06:18:47;;;;;;;0.00;0.00;;;3.20;99.90;;;;;;4981850;28;20046;-68
2021/12/05 06:21:15;;;;;;;5.18;1.55;;;3.20;99.90;;;;;;4981900;28;20059;-68
2021/12/05 06:23:41;;;;;;;0.00;0.00;;;3.20;99.90;;;;;;4980935;28;20398;-67
2021/12/05 06:26:10;;;;;;;0.00;0.00;;;3.20;99.90;;;;;;4980852;28;20043;-68
2021/12/05 06:28:44;;;;;;;0.00;0.00;;;3.20;99.90;;;;;;4981478;28;20046;-68
2021/12/05 06:36:56;;;;;;;0.00;0.00;;;3.20;99.90;;;;;;4981929;28;20054;-69
2021/12/05 06:47:23;;;;;;;;;;;3.10;99.90;;;;;;4981319;28;20053;-68
2021/12/05 06:49:50;;;;;;;0.08;0.08;;;3.10;99.90;;;;;;4980944;28;19991;-68
2021/12/05 06:52:16;;;;;;;1.95;1.85;;;3.10;99.90;;;;;;4963523;28;20541;-67
2021/12/05 06:54:42;;;;;;;0.00;0.00;;;3.50;99.90;;;;;;4979758;28;20046;-69
2021/12/05 06:57:09;;;;;;;0.00;0.00;;;3.10;99.90;;;;;;4981372;28;20042;-68
2021/12/05 06:59:38;;;;;;;0.10;0.10;;;3.10;99.90;;;;;;4963889;28;20060;-67
2021/12/05 07:02:04;;;;;;;0.00;0.00;;;3.00;99.90;;;;;;4980746;28;20401;-68
2021/12/05 07:07:14;;;;;;;0.00;0.00;;;3.00;99.90;;;;;;4981254;28;20046;-68
2021/12/05 07:09:41;;;;;;;0.00;0.00;;;3.00;99.90;;;;;;4979533;28;20074;-68
2021/12/05 07:15:01;;;;;;;0.00;0.00;;;3.00;99.90;;;;;;4980141;28;20046;-67
2021/12/05 07:20:08;;;;;;;0.00;0.00;;;3.00;99.90;;;;;;4963354;28;20085;-68
2021/12/05 07:23:28;;;;;;;0.00;0.00;;;3.00;99.90;;;;;;4979984;28;20054;-68
2021/12/05 07:25:30;;;;;;;0.00;0.00;;;3.00;99.90;;;;;;4974122;28;20046;-68
2021/12/05 07:41:53;;;;;;;0.00;0.00;;;3.00;99.90;;;;;;4979753;28;20596;-68
2021/12/05 07:44:19;;;;;;;0.25;0.25;;;3.30;99.90;;;;;;4962184;28;20365;-68
2021/12/05 07:46:46;;;;;;;0.00;0.00;;;3.00;99.90;;;;;;4979916;28;20557;-69
2021/12/05 07:49:13;;;;;;;0.55;0.55;;;3.00;99.90;;;;;;4980097;28;20464;-68
2021/12/05 07:51:45;;;;;;;0.00;0.00;;;3.00;99.90;;;;;;4979847;28;20435;-68
2021/12/05 07:56:52;;;;;;;0.00;0.00;;;3.00;99.90;;;;;;4979137;28;20403;-67
2021/12/05 07:59:40;;;;;;;0.00;0.00;;;3.00;99.90;;;;;;4979937;28;20046;-68
2021/12/05 08:15:59;;;;;;;0.00;0.00;;;3.00;99.90;;;;;;4979730;28;20794;-69
2021/12/05 08:18:27;;;;;;;0.00;0.00;;;3.10;99.90;;;;;;4979179;28;20130;-68
2021/12/05 08:20:53;;;;;;;0.00;0.00;;;3.10;99.90;;;;;;4980016;28;20074;-68
2021/12/05 08:23:20;;;;;;;0.00;0.00;;;3.10;99.90;;;;;;4980178;28;20077;-69
2021/12/05 08:25:53;;;;;;;0.00;0.00;;;3.10;99.90;;;;;;4944825;28;20081;-68
2021/12/05 08:28:37;;;;;;;0.00;0.00;;;3.10;99.90;;;;;;4962063;28;20568;-69
2021/12/05 08:31:17;;;;;;;0.00;0.00;;;3.10;99.90;;;;;;4961622;28;20054;-69
2021/12/05 08:34:03;;;;;;;0.00;0.00;;;3.20;99.90;;;;;;4979448;28;20461;-70
2021/12/05 09:23:33;;;;;;;0.00;0.00;;;3.40;99.90;;;;;;4958368;28;20047;-69
2021/12/05 09:39:42;;;;;;;0.00;0.00;;;3.50;99.90;;;;;;4998623;28;20053;-70
2021/12/05 10:26:32;;;;;;;0.00;0.00;;;3.90;99.90;;;;;;4979663;28;20104;-69
2021/12/05 10:37:47;;;;;;;0.00;0.00;;;3.90;99.90;;;;;;4981936;28;20104;-71
2021/12/05 10:40:20;;;;;;;0.00;0.00;;;4.00;99.90;;;;;;4980649;28;20081;-70
2021/12/05 10:42:49;;;;;;;0.00;0.00;;;4.00;99.90;;;;;;4985551;28;20042;-69
2021/12/05 10:45:29;;;;;;;0.00;0.00;;;4.00;99.90;;;;;;5000819;28;20053;-68
2021/12/05 10:47:56;;;;;;;0.00;0.00;;;4.00;99.90;;;;;;5000705;28;20046;-69
2021/12/05 10:50:44;;;;;;;0.00;0.00;;;4.00;99.90;;;;;;4982899;28;20049;-69
2021/12/05 10:53:29;;;;;;;0.00;0.00;;;4.00;99.90;;;;;;5000766;28;20061;-70
2021/12/05 10:55:57;;;;;;;;;;;4.00;99.90;;;;;;5000194;28;20054;-68
2021/12/05 10:58:28;;;;;;;0.00;0.00;;;4.10;99.90;;;;;;4999409;28;19925;-68
2021/12/05 11:01:07;;;;;;;0.00;0.00;;;4.10;99.90;;;;;;5000225;28;20081;-69
2021/12/05 11:03:32;;;;;;;0.00;0.00;;;4.10;99.90;;;;;;4988668;28;20057;-68
2021/12/05 11:05:58;;;;;;;0.00;0.00;;;4.10;99.90;;;;;;4980575;28;20050;-68
2021/12/05 11:08:36;;;;;;;0.00;0.00;;;4.00;99.90;;;;;;4980784;28;20073;-68
2021/12/05 11:11:12;;;;;;;0.00;0.00;;;4.10;99.90;;;;;;4980365;28;20450;-68
2021/12/05 11:13:40;;;;;;;0.00;0.00;;;4.00;99.90;;;;;;4963124;28;20058;-68
2021/12/05 11:16:33;;;;;;;0.00;0.00;;;4.00;99.90;;;;;;4963592;28;20419;-67
2021/12/05 11:18:59;;;;;;;0.00;0.00;;;4.10;99.90;;;;;;4963616;28;20494;-69
2021/12/05 11:21:34;;;;;;;0.00;0.00;;;4.20;99.90;;;;;;4962904;28;20058;-69
2021/12/05 11:24:05;;;;;;;0.00;0.00;;;4.10;99.90;;;;;;4978767;28;20716;-68
2021/12/05 11:26:32;;;;;;;0.00;0.00;;;4.30;99.90;;;;;;4980749;28;20133;-68
2021/12/05 11:28:58;;;;;;;0.00;0.00;;;4.30;99.90;;;;;;4981114;28;20050;-69
2021/12/05 11:31:29;;;;;;;0.00;0.00;;;4.30;99.90;;;;;;4962477;28;20089;-68
2021/12/05 11:33:56;;;;;;;0.00;0.00;;;4.40;99.90;;;;;;4980244;28;20724;-68
2021/12/05 11:36:29;;;;;;;0.00;0.00;;;4.40;99.90;;;;;;4963243;28;20088;-68
2021/12/05 11:38:55;;;;;;;0.00;0.00;;;4.40;99.90;;;;;;4979774;28;20049;-66
2021/12/05 11:41:22;;;;;;;0.00;0.00;;;4.50;99.90;;;;;;4978754;28;20050;-68
2021/12/05 11:43:56;;;;;;;0.00;0.00;;;4.40;99.90;;;;;;4962743;28;20038;-67
2021/12/05 11:46:32;;;;;;;0.00;0.00;;;4.50;99.90;;;;;;4980088;28;20133;-68
2021/12/05 11:49:10;;;;;;;0.00;0.00;;;4.50;99.90;;;;;;4980293;28;20129;-68
2021/12/05 11:51:56;;;;;;;0.00;0.00;;;4.50;99.90;;;;;;4962439;28;20057;-68
2021/12/05 11:54:37;;;;;;;0.00;0.00;;;4.60;99.90;;;;;;4979254;28;20131;-68
2021/12/05 11:57:07;;;;;;;0.00;0.00;;;4.60;99.90;;;;;;4962724;28;20052;-67
2021/12/05 11:59:37;;;;;;;0.00;0.00;;;4.70;99.90;;;;;;4979963;28;20117;-67
2021/12/05 12:02:13;;;;;;;0.00;0.00;;;4.70;99.90;;;;;;4979511;28;20065;-70
2021/12/05 12:04:51;;;;;;;0.00;0.00;;;4.70;99.90;;;;;;4978691;28;20039;-69
2021/12/05 12:07:31;;;;;;;0.00;0.00;;;4.60;99.90;;;;;;4979947;28;20425;-69
2021/12/05 12:10:12;;;;;;;0.00;0.00;;;4.80;99.90;;;;;;4978811;28;20054;-69
2021/12/05 12:12:41;;;;;;;0.00;0.00;;;4.80;99.90;;;;;;4979812;28;20133;-70
2021/12/05 12:15:08;;;;;;;0.00;0.00;;;4.80;99.90;;;;;;4979457;28;20085;-70
2021/12/05 12:17:34;;;;;;;0.00;0.00;;;4.90;99.90;;;;;;4980104;28;20049;-70
2021/12/05 12:20:01;;;;;;;0.00;0.00;;;4.90;99.90;;;;;;4978594;28;20408;-70
2021/12/05 12:22:27;;;;;;;0.00;0.00;;;4.90;99.90;;;;;;4979400;28;20153;-69
2021/12/05 12:25:00;;;;;;;0.00;0.00;;;5.10;99.90;;;;;;4978230;28;20097;-70
2021/12/05 12:27:26;;;;;;;0.00;0.00;;;5.10;99.90;;;;;;4978315;28;20141;-69
2021/12/05 12:29:59;;;;;;;0.00;0.00;;;5.10;99.90;;;;;;4979118;28;20108;-70
2021/12/05 12:32:31;;;;;;;0.00;0.00;;;5.20;99.90;;;;;;4979546;28;20061;-72
2021/12/05 12:35:12;;;;;;;0.00;0.00;;;5.10;99.90;;;;;;4960986;28;20050;-69
2021/12/05 12:37:57;;;;;;;0.00;0.00;;;5.10;99.90;;;;;;4962112;28;20873;-70
2021/12/05 12:40:47;;;;;;;0.00;0.00;;;5.40;99.90;;;;;;4960264;28;20393;-70
2021/12/05 12:43:44;;;;;;;0.00;0.00;;;5.10;99.90;;;;;;4961354;28;20046;-70
2021/12/05 12:46:25;;;;;;;0.00;0.00;;;5.10;99.90;;;;;;4979012;28;20078;-69
2021/12/05 12:49:14;;;;;;;0.00;0.00;;;4.80;99.90;;;;;;4978132;28;20051;-71
2021/12/05 12:51:42;;;;;;;0.00;0.00;;;5.00;99.90;;;;;;4951430;28;20054;-71
2021/12/05 12:54:14;;;;;;;0.00;0.00;;;5.00;99.90;;;;;;4977503;28;20057;-71
2021/12/05 12:56:43;;;;;;;0.00;0.00;;;5.00;99.90;;;;;;4978726;28;20043;-73
2021/12/05 12:59:17;;;;;;;0.00;0.00;;;5.00;99.90;;;;;;4978937;28;20085;-69
2021/12/05 13:10:05;;;;;;;0.00;0.00;;;5.00;99.90;;;;;;4958609;28;20134;-69
2021/12/05 13:12:40;;;;;;;0.00;0.00;;;5.20;99.90;;;;;;4958496;28;20409;-68
2021/12/05 13:15:12;;;;;;;0.00;0.00;;;5.00;99.90;;;;;;4959194;28;20054;-69
2021/12/05 13:17:46;;;;;;;0.00;0.00;;;5.00;99.90;;;;;;4945788;28;20054;-69
2021/12/05 13:20:14;;;;;;;0.00;0.00;;;5.10;99.90;;;;;;4945664;28;20047;-69
2021/12/05 13:23:00;;;;;;;0.00;0.00;;;5.10;99.90;;;;;;4962973;28;20133;-69
2021/12/05 13:25:26;;;;;;;0.00;0.00;;;5.00;99.90;;;;;;4944202;28;20047;-69
2021/12/05 13:27:52;;;;;;;0.00;0.00;;;5.00;99.90;;;;;;4962485;28;20082;-69
2021/12/05 13:30:33;;;;;;;0.00;0.00;;;5.00;99.90;;;;;;4945596;28;20078;-69
2021/12/05 13:33:16;;;;;;;0.00;0.00;;;5.00;99.90;;;;;;4961947;28;20050;-69
2021/12/05 13:35:43;;;;;;;0.00;0.00;;;5.00;99.90;;;;;;4945624;28;20097;-69
2021/12/05 13:38:31;;;;;;;0.00;0.00;;;5.40;99.90;;;;;;4961740;28;20111;-69
2021/12/05 13:41:13;;;;;;;0.00;0.00;;;5.80;99.90;;;;;;4961724;28;20053;-70
2021/12/05 13:43:40;;;;;;;0.00;0.00;;;5.00;99.90;;;;;;4962044;28;20047;-69
2021/12/05 13:46:31;;;;;;;0.00;0.00;;;5.00;99.90;;;;;;4962091;28;20042;-69
2021/12/05 13:48:58;;;;;;;0.00;0.00;;;5.00;99.90;;;;;;4961394;28;20054;-70
2021/12/05 13:51:26;;;;;;;0.00;0.00;;;4.90;99.90;;;;;;4962749;28;20054;-69
2021/12/05 13:53:53;;;;;;;0.00;0.00;;;4.90;99.90;;;;;;4961557;28;20537;-69
2021/12/05 13:56:25;;;;;;;0.00;0.00;;;5.20;99.90;;;;;;4961591;28;20049;-69
2021/12/05 13:58:53;;;;;;;0.00;0.00;;;4.90;99.90;;;;;;4962396;28;20070;-69
2021/12/05 14:01:34;;;;;;;0.00;0.00;;;4.90;99.90;;;;;;4945346;28;20139;-69
2021/12/05 14:04:19;;;;;;;0.00;0.00;;;4.90;99.90;;;;;;4975741;28;20125;-70
2021/12/05 14:06:58;;;;;;;0.00;0.00;;;4.90;99.90;;;;;;4962204;28;20437;-69
2021/12/05 14:09:28;;;;;;;0.00;0.00;;;4.90;99.90;;;;;;4960752;28;20059;-69
2021/12/05 14:11:59;;;;;;;0.00;0.00;;;;;;;;;;4962509;28;20050;-69
2021/12/05 14:14:30;;;;;;;0.00;0.00;;;5.00;99.90;;;;;;4973208;28;20141;-69
2021/12/05 14:16:58;;;;;;;0.00;0.00;;;4.90;99.90;;;;;;4960139;28;20608;-70
2021/12/05 14:19:29;;;;;;;0.00;0.00;;;4.80;99.90;;;;;;4975831;28;20047;-70
2021/12/05 14:21:57;;;;;;;0.00;0.00;;;4.80;99.90;;;;;;4977256;28;20089;-69
2021/12/05 14:24:30;;;;;;;0.00;0.00;;;4.80;99.90;;;;;;4958268;28;20058;-70
2021/12/05 14:26:58;;;;;;;0.00;0.00;;;5.20;99.90;;;;;;4958992;28;20053;-70
2021/12/05 14:29:26;;;;;;;0.00;0.00;;;4.70;99.90;;;;;;4959109;28;20054;-69
2021/12/05 14:32:02;;;;;;;0.00;0.00;;;4.70;99.90;;;;;;4975974;28;20073;-69
2021/12/05 14:34:28;;;;;;;0.00;0.00;;;4.70;99.90;;;;;;4959770;28;20046;-70
2021/12/05 14:37:19;;;;;;;0.00;0.00;;;4.70;99.90;;;;;;4943715;28;20334;-69
2021/12/05 14:39:55;;;;;;;0.00;0.00;;;4.70;99.90;;;;;;4951252;28;20046;-70
2021/12/05 14:42:23;;;;;;;0.00;0.00;;;4.70;99.90;;;;;;4976146;28;20058;-69
2021/12/05 14:44:52;;;;;;;0.00;0.00;;;4.70;99.90;;;;;;4966615;28;20045;-69
2021/12/05 14:47:20;;;;;;;0.00;0.00;;;4.70;99.90;;;;;;4959244;28;20304;-70
2021/12/05 14:49:53;;;;;;;0.00;0.00;;;4.70;99.90;;;;;;4959298;28;20042;-69
2021/12/05 14:52:27;;;;;;;0.00;0.00;;;4.70;99.90;;;;;;4958555;28;20050;-69
2021/12/05 14:54:54;;;;;;;0.00;0.00;;;4.60;99.90;;;;;;4975912;28;20602;-69
2021/12/05 14:57:26;;;;;;;0.00;0.00;;;5.90;99.90;;;;;;4942389;28;20309;-62
2021/12/05 14:59:59;;;;;;;0.00;0.00;;;4.70;99.90;;;;;;4976703;28;20421;-60
2021/12/05 15:02:25;;;;;;;0.00;0.00;;;4.80;99.90;;;;;;4976000;28;20053;-62
2021/12/05 15:04:53;;;;;;;0.00;0.00;;;5.80;99.90;;;;;;4952917;28;20038;-63
2021/12/05 15:07:24;;;;;;;0.00;0.00;;;4.80;99.90;;;;;;4957557;28;20069;-63
2021/12/05 15:09:53;;;;;;;0.00;0.00;;;4.80;99.90;;;;;;4972542;28;20042;-63
2021/12/05 15:12:25;;;;;;;0.00;0.00;;;5.30;99.90;;;;;;4956813;28;20137;-63
2021/12/05 15:14:56;;;;;;;0.00;0.00;;;4.70;99.90;;;;;;4956461;28;20072;-62
2021/12/05 15:17:31;;;;;;;0.00;0.00;;;4.70;99.90;;;;;;4974755;28;20049;-64
2021/12/05 15:19:59;;;;;;;0.00;0.00;;;4.70;99.90;;;;;;4957131;28;20054;-62
2021/12/05 15:22:27;;;;;;;0.00;0.00;;;5.30;99.90;;;;;;4957499;28;20046;-62
2021/12/05 15:25:02;;;;;;;0.00;0.00;;;4.70;99.90;;;;;;4955712;28;20278;-62
2021/12/05 15:27:33;;;;;;;0.00;0.00;;;5.00;99.90;;;;;;4958185;28;20408;-62
2021/12/05 15:30:14;;;;;;;0.00;0.00;;;4.80;99.90;;;;;;4974237;28;20064;-62
2021/12/05 15:32:40;;;;;;;0.00;0.00;;;4.70;99.90;;;;;;4957585;28;20050;-62
2021/12/05 15:35:13;;;;;;;0.00;0.00;;;4.60;99.90;;;;;;4956819;28;20165;-62
2021/12/05 15:38:06;;;;;;;0.00;0.00;;;4.60;99.90;;;;;;4957829;28;20793;-61
2021/12/05 15:40:34;;;;;;;0.00;0.00;;;4.50;99.90;;;;;;4955399;28;20046;-62
2021/12/05 15:43:04;;;;;;;0.00;0.00;;;4.50;99.90;;;;;;4949958;28;20136;-62
2021/12/05 15:45:30;;;;;;;0.00;0.00;;;4.50;99.90;;;;;;4957207;28;20133;-62
2021/12/05 15:47:57;;;;;;;0.00;0.00;;;5.60;99.90;;;;;;4941916;28;20434;-61
2021/12/05 15:50:26;;;;;;;0.00;0.00;;;4.50;99.90;;;;;;4973473;28;20882;-62
2021/12/05 15:53:08;;;;;;;0.00;0.00;;;4.50;99.90;;;;;;4973765;28;20081;-62
2021/12/05 15:55:43;;;;;;;0.00;0.00;;;4.40;99.90;;;;;;4950808;28;20047;-62
2021/12/05 15:58:23;;;;;;;0.00;0.00;;;5.80;99.90;;;;;;4956360;28;20698;-62
2021/12/05 16:00:57;;;;;;;0.00;0.00;;;4.40;99.90;;;;;;4974842;28;20050;-62
2021/12/05 16:03:25;;;;;;;0.00;0.00;;;4.50;99.90;;;;;;4973017;28;20425;-61
2021/12/05 16:05:57;;;;;;;0.00;0.00;;;4.40;99.90;;;;;;4974297;28;20053;-62
2021/12/05 16:08:23;;;;;;;0.00;0.00;;;4.40;99.90;;;;;;4964321;28;20050;-61
2021/12/05 16:10:57;;;;;;;0.00;0.00;;;4.30;99.90;;;;;;4956295;28;20046;-62
2021/12/05 16:13:25;;;;;;;0.00;0.00;;;4.30;99.90;;;;;;4945507;28;20094;-62
2021/12/05 16:15:54;;;;;;;0.00;0.00;;;4.30;99.90;;;;;;4954557;28;20711;-62
2021/12/05 16:18:29;;;;;;;0.00;0.00;;;5.10;99.90;;;;;;4952586;28;20057;-61
2021/12/05 16:21:01;;;;;;;0.00;0.00;;;4.30;99.90;;;;;;4954360;28;20413;-62
2021/12/05 16:23:30;;;;;;;0.00;0.00;;;4.30;99.90;;;;;;4953428;28;20062;-62
2021/12/05 16:26:10;;;;;;;0.00;0.00;;;4.30;99.90;;;;;;4953795;28;20043;-62
2021/12/05 16:28:58;;;;;;;0.10;0.10;;;4.30;99.90;;;;;;4954017;28;20434;-62
2021/12/05 16:31:39;;;;;;;0.00;0.00;;;4.30;99.90;;;;;;4951871;28;20109;-63
2021/12/05 16:34:17;;;;;;;0.00;0.00;;;4.20;99.90;;;;;;4954059;28;20138;-64
2021/12/05 16:36:48;;;;;;;0.00;0.00;;;4.20;99.90;;;;;;4954639;28;20051;-62
2021/12/05 16:39:17;;;;;;;0.00;0.00;;;4.20;99.90;;;;;;4961363;28;20390;-62
2021/12/05 16:41:53;;;;;;;0.00;0.00;;;4.10;99.90;;;;;;4953573;28;20050;-62
2021/12/05 16:44:25;;;;;;;0.00;0.00;;;4.10;99.90;;;;;;4929163;28;20099;-62
2021/12/05 16:47:02;;;;;;;0.00;0.00;;;4.00;99.90;;;;;;4945183;28;20062;-62
2021/12/05 16:49:34;;;;;;;0.00;0.00;;;3.90;99.90;;;;;;4955370;28;20065;-62
2021/12/05 16:52:08;;;;;;;0.00;0.00;;;4.00;99.90;;;;;;4955565;28;20727;-62
2021/12/05 16:54:51;;;;;;;0.00;0.00;;;3.90;99.90;;;;;;4952362;28;20130;-63
2021/12/05 16:57:24;;;;;;;0.00;0.00;;;3.90;99.90;;;;;;4952703;28;20050;-63
2021/12/05 16:59:53;;;;;;;0.00;0.00;;;4.00;99.90;;;;;;4953584;28;20039;-62
2021/12/05 17:02:25;;;;;;;0.00;0.00;;;3.90;99.90;;;;;;4952862;28;20089;-63
2021/12/05 17:05:15;;;;;;;0.00;0.00;;;4.80;99.90;;;;;;4954586;28;20123;-63
2021/12/05 17:07:57;;;;;;;0.00;0.00;;;3.80;99.90;;;;;;4953013;28;20055;-64
2021/12/05 17:10:25;;;;;;;0.00;0.00;;;3.80;99.90;;;;;;4952254;28;20055;-62
2021/12/05 17:12:57;;;;;;;0.00;0.00;;;3.70;99.90;;;;;;4956621;28;20047;-62
2021/12/05 17:15:27;;;;;;;0.00;0.00;;;3.70;99.90;;;;;;4938842;28;20273;-62
2021/12/05 17:18:02;;;;;;;0.00;0.00;;;3.70;99.90;;;;;;4974223;28;20094;-62
2021/12/05 17:20:36;;;;;;;0.00;0.00;;;4.10;99.90;;;;;;4958139;28;20050;-62
2021/12/05 17:23:05;;;;;;;;;;;3.60;99.90;;;;;;4956607;28;20042;-65
2021/12/05 17:25:33;;;;;;;0.00;0.00;;;3.60;99.90;;;;;;4958002;28;19926;-62
2021/12/05 17:28:01;;;;;;;0.00;0.00;;;3.60;99.90;;;;;;4948176;28;20109;-62
2021/12/05 17:30:27;;;;;;;0.00;0.00;;;3.50;99.90;;;;;;4956234;28;20413;-62
2021/12/05 17:32:53;;;;;;;0.00;0.00;;;3.40;99.90;;;;;;4974342;28;20045;-63
2021/12/05 17:35:18;;;;;;;0.00;0.00;;;3.40;99.90;;;;;;4974953;28;20053;-62
2021/12/05 17:37:46;;;;;;;0.00;0.00;;;3.40;99.90;;;;;;4974300;28;20611;-62
2021/12/05 17:40:14;;;;;;;0.00;0.00;;;3.40;99.90;;;;;;4955512;28;20047;-62
2021/12/05 17:42:41;;;;;;;0.00;0.00;;;3.30;99.90;;;;;;4957457;28;20050;-62
2021/12/05 17:45:09;;;;;;;0.00;0.00;;;3.40;99.90;;;;;;4974077;28;20053;-62
2021/12/05 17:47:35;;;;;;;0.00;0.00;;;3.40;99.90;;;;;;4956567;28;20035;-62
2021/12/05 17:50:06;;;;;;;0.00;0.00;;;3.30;99.90;;;;;;4956547;28;21628;-62
2021/12/05 17:52:32;;;;;;;0.00;0.00;;;3.30;99.90;;;;;;4967609;28;20084;-62
2021/12/05 17:55:21;;;;;;;0.00;0.00;;;3.40;99.90;;;;;;4955878;28;20045;-65
2021/12/05 17:57:55;;;;;;;0.00;0.00;;;3.60;99.90;;;;;;4939974;28;20125;-62
2021/12/05 18:00:45;;;;;;;0.00;0.00;;;3.70;99.90;;;;;;4955742;28;20054;-63
2021/12/05 18:03:13;;;;;;;0.00;0.00;;;4.20;99.90;;;;;;4951005;28;20081;-62
2021/12/05 18:05:45;;;;;;;0.00;0.00;;;3.50;99.90;;;;;;4960244;28;20038;-62
2021/12/05 18:08:14;;;;;;;0.00;0.00;;;3.40;99.90;;;;;;4958297;28;20042;-62
2021/12/05 18:10:48;;;;;;;0.00;0.00;;;3.40;99.90;;;;;;4977844;28;20042;-62
2021/12/05 18:13:14;;;;;;;0.00;0.00;;;2.60;99.90;;;;;;4976478;28;20054;-63
2021/12/05 18:15:47;;;;;;;0.00;0.00;;;3.30;99.90;;;;;;4959862;28;20516;-65
2021/12/05 18:18:15;;;;;;;0.00;0.00;;;3.30;99.90;;;;;;4977051;28;20038;-62
2021/12/05 18:20:41;;;;;;;0.00;0.00;;;3.20;99.90;;;;;;4976776;28;20085;-62
2021/12/05 18:23:08;;;;;;;0.00;0.00;;;3.20;99.90;;;;;;4952345;28;20047;-63
2021/12/05 18:25:36;;;;;;;0.00;0.00;;;3.20;99.90;;;;;;4959555;28;20042;-62
2021/12/05 18:28:02;;;;;;;0.00;0.00;;;3.20;99.90;;;;;;4974716;28;20046;-63
2021/12/05 18:30:29;;;;;;;0.00;0.00;;;3.10;99.90;;;;;;4953746;28;20173;-62
2021/12/05 18:32:57;;;;;;;0.00;0.00;;;3.20;99.90;;;;;;4957586;28;20058;-63
2021/12/05 18:35:28;;;;;;;0.00;0.00;;;3.10;99.90;;;;;;4975834;28;20086;-62
2021/12/05 18:37:55;;;;;;;0.00;0.00;;;3.20;99.90;;;;;;4956706;28;20129;-63